Time,TemperatureF,DewpointF,PressureIn,WindDirection,WindDirectionDegrees,WindSpeedMPH,WindSpeedGustMPH,Humidity,HourlyPrecipIn,Conditions,Clouds,dailyrainin,SoftwareType,DateUTC
2013-02-23 00:03:00,32.0,20.0,29.85,SW,223,5.0,12.0,60,0.00,,,0.00,,2013-02-23 05:03:00,
2013-02-23 00:33:00,32.0,21.0,29.85,SW,219,5.0,10.0,63,0.00,,,0.00,,2013-02-23 05:33:00,
2013-02-23 00:42:00,32.0,21.0,29.85,SW,219,5.0,10.0,63,0.00,,,0.00,,2013-02-23 05:42:00,
2013-02-23 00:52:00,32.0,21.0,29.85,SW,219,5.0,10.0,63,0.00,,,0.00,,2013-02-23 05:52:00,
2013-02-23 01:02:00,32.0,23.0,29.84,SSW,209,4.0,9.0,68,0.00,,,0.00,,2013-02-23 06:02:00,
2013-02-23 01:11:00,32.0,23.0,29.84,SSW,209,4.0,9.0,68,0.00,,,0.00,,2013-02-23 06:11:00,
2013-02-23 01:23:00,32.0,23.0,29.84,SSW,209,4.0,9.0,68,0.00,,,0.00,,2013-02-23 06:23:00,
2013-02-23 01:32:00,31.0,22.0,29.84,SSW,209,3.0,8.0,70,0.00,,,0.00,,2013-02-23 06:32:00,
2013-02-23 01:42:00,31.0,22.0,29.84,SSW,209,3.0,8.0,70,0.00,,,0.00,,2013-02-23 06:42:00,
2013-02-23 01:52:00,31.0,22.0,29.84,SSW,209,3.0,8.0,70,0.00,,,0.00,,2013-02-23 06:52:00,
2013-02-23 02:01:00,31.0,23.0,29.83,SW,233,3.0,8.0,72,0.00,,,0.00,,2013-02-23 07:01:00,
2013-02-23 02:11:00,31.0,23.0,29.83,SW,233,3.0,8.0,72,0.00,,,0.00,,2013-02-23 07:11:00,
2013-02-23 02:21:00,31.0,23.0,29.83,SW,233,3.0,8.0,72,0.00,,,0.00,,2013-02-23 07:21:00,
2013-02-23 02:32:00,31.0,24.0,29.83,SSW,198,3.0,10.0,75,0.00,,,0.00,,2013-02-23 07:32:00,
2013-02-23 02:42:00,31.0,24.0,29.83,SSW,198,3.0,10.0,75,0.00,,,0.00,,2013-02-23 07:42:00,
2013-02-23 02:52:00,31.0,24.0,29.83,SSW,198,3.0,10.0,75,0.00,,,0.00,,2013-02-23 07:52:00,
2013-02-23 03:01:00,31.0,24.0,29.83,SSW,211,3.0,9.0,76,0.00,,,0.00,,2013-02-23 08:01:00,
2013-02-23 03:11:00,31.0,24.0,29.83,SSW,211,3.0,9.0,76,0.00,,,0.00,,2013-02-23 08:11:00,
2013-02-23 03:21:00,31.0,24.0,29.83,SSW,211,3.0,9.0,76,0.00,,,0.00,,2013-02-23 08:21:00,
2013-02-23 03:32:00,31.0,25.0,29.83,SSW,208,4.0,9.0,77,0.00,,,0.00,,2013-02-23 08:32:00,
2013-02-23 03:42:00,31.0,25.0,29.83,SSW,208,4.0,9.0,77,0.00,,,0.00,,2013-02-23 08:42:00,
2013-02-23 03:53:00,31.0,25.0,29.83,SSW,208,4.0,9.0,77,0.00,,,0.00,,2013-02-23 08:53:00,
2013-02-23 04:02:00,31.0,25.0,29.82,South,188,5.0,10.0,77,0.00,,,0.00,,2013-02-23 09:02:00,
2013-02-23 04:11:00,31.0,25.0,29.82,South,188,5.0,10.0,77,0.00,,,0.00,,2013-02-23 09:11:00,
2013-02-23 04:22:00,31.0,25.0,29.82,South,188,5.0,10.0,77,0.00,,,0.00,,2013-02-23 09:22:00,
2013-02-23 04:32:00,31.0,24.0,29.81,SW,223,2.0,8.0,74,0.00,,,0.00,,2013-02-23 09:32:00,
2013-02-23 04:42:00,31.0,24.0,29.81,SW,223,2.0,8.0,74,0.00,,,0.00,,2013-02-23 09:42:00,
2013-02-23 04:52:00,31.0,24.0,29.81,SW,223,2.0,8.0,74,0.00,,,0.00,,2013-02-23 09:52:00,
2013-02-23 05:01:00,31.0,24.0,29.82,SSW,211,2.0,8.0,74,0.00,,,0.00,,2013-02-23 10:01:00,
2013-02-23 05:11:00,31.0,24.0,29.82,SSW,211,2.0,8.0,74,0.00,,,0.00,,2013-02-23 10:11:00,
2013-02-23 05:21:00,31.0,24.0,29.82,SSW,211,2.0,8.0,74,0.00,,,0.00,,2013-02-23 10:21:00,
2013-02-23 05:32:00,30.0,23.0,29.82,SW,227,2.0,8.0,74,0.00,,,0.00,,2013-02-23 10:32:00,
2013-02-23 05:42:00,30.0,23.0,29.82,SW,227,2.0,8.0,74,0.00,,,0.00,,2013-02-23 10:42:00,
2013-02-23 05:52:00,30.0,23.0,29.82,SW,227,2.0,8.0,74,0.00,,,0.00,,2013-02-23 10:52:00,
2013-02-23 06:02:00,30.0,22.0,29.83,SSW,199,2.0,5.0,72,0.00,,,0.00,,2013-02-23 11:02:00,
2013-02-23 06:11:00,30.0,22.0,29.83,SSW,199,2.0,5.0,72,0.00,,,0.00,,2013-02-23 11:11:00,
2013-02-23 06:22:00,30.0,22.0,29.83,SSW,199,2.0,5.0,72,0.00,,,0.00,,2013-02-23 11:22:00,
2013-02-23 06:32:00,30.0,22.0,29.83,West,278,2.0,7.0,71,0.00,,,0.00,,2013-02-23 11:32:00,
2013-02-23 06:42:00,30.0,22.0,29.83,West,278,2.0,7.0,71,0.00,,,0.00,,2013-02-23 11:42:00,
2013-02-23 06:53:00,30.0,22.0,29.83,West,278,2.0,7.0,71,0.00,,,0.00,,2013-02-23 11:53:00,
2013-02-23 07:02:00,30.0,23.0,29.83,WSW,248,3.0,9.0,75,0.00,,,0.00,,2013-02-23 12:02:00,
2013-02-23 07:11:00,30.0,23.0,29.83,WSW,248,3.0,9.0,75,0.00,,,0.00,,2013-02-23 12:11:00,
2013-02-23 07:22:00,30.0,23.0,29.83,WSW,248,3.0,9.0,75,0.00,,,0.00,,2013-02-23 12:22:00,
2013-02-23 07:32:00,30.0,25.0,29.85,WSW,252,2.0,6.0,80,0.00,,,0.00,,2013-02-23 12:32:00,
2013-02-23 07:42:00,30.0,25.0,29.85,WSW,252,2.0,6.0,80,0.00,,,0.00,,2013-02-23 12:42:00,
2013-02-23 07:53:00,30.0,25.0,29.85,WSW,252,2.0,6.0,80,0.00,,,0.00,,2013-02-23 12:53:00,
2013-02-23 08:02:00,30.0,25.0,29.85,WSW,245,1.0,8.0,81,0.00,,,0.00,,2013-02-23 13:02:00,
2013-02-23 08:11:00,30.0,25.0,29.85,WSW,245,1.0,8.0,81,0.00,,,0.00,,2013-02-23 13:11:00,
2013-02-23 08:22:00,30.0,25.0,29.85,WSW,245,1.0,8.0,81,0.00,,,0.00,,2013-02-23 13:22:00,
2013-02-23 08:32:00,29.0,24.0,29.85,SW,236,3.0,9.0,82,0.00,,,0.00,,2013-02-23 13:32:00,
2013-02-23 08:42:00,29.0,24.0,29.85,SW,236,3.0,9.0,82,0.00,,,0.00,,2013-02-23 13:42:00,
2013-02-23 08:52:00,29.0,24.0,29.85,SW,236,3.0,9.0,82,0.00,,,0.00,,2013-02-23 13:52:00,
2013-02-23 09:02:00,29.0,24.0,29.85,SW,229,1.0,6.0,81,0.00,,,0.00,,2013-02-23 14:02:00,
2013-02-23 09:11:00,29.0,24.0,29.85,SW,229,1.0,6.0,81,0.00,,,0.00,,2013-02-23 14:11:00,
2013-02-23 09:22:00,29.0,24.0,29.85,SW,229,1.0,6.0,81,0.00,,,0.00,,2013-02-23 14:22:00,
2013-02-23 09:32:00,29.0,23.0,29.85,West,263,2.0,8.0,78,0.00,,,0.00,,2013-02-23 14:32:00,
2013-02-23 09:42:00,29.0,23.0,29.85,West,263,2.0,8.0,78,0.00,,,0.00,,2013-02-23 14:42:00,
2013-02-23 09:52:00,29.0,23.0,29.85,West,263,2.0,8.0,78,0.00,,,0.00,,2013-02-23 14:52:00,
2013-02-23 10:02:00,30.0,24.0,29.85,WSW,248,7.0,17.0,78,0.00,,,0.00,,2013-02-23 15:02:00,
2013-02-23 10:11:00,30.0,24.0,29.85,WSW,248,7.0,17.0,78,0.00,,,0.00,,2013-02-23 15:11:00,
2013-02-23 10:22:00,30.0,24.0,29.85,WSW,248,7.0,17.0,78,0.00,,,0.00,,2013-02-23 15:22:00,
2013-02-23 10:32:00,30.0,24.0,29.85,WSW,248,7.0,17.0,78,0.00,,,0.00,,2013-02-23 15:32:00,
2013-02-23 10:42:00,30.0,24.0,29.85,WSW,248,7.0,17.0,78,0.00,,,0.00,,2013-02-23 15:42:00,
2013-02-23 11:01:00,29.0,24.0,29.85,WSW,250,6.0,14.0,81,0.00,,,0.00,,2013-02-23 16:01:00,
2013-02-23 11:11:00,29.0,24.0,29.85,WSW,250,6.0,14.0,81,0.00,,,0.00,,2013-02-23 16:11:00,
2013-02-23 11:22:00,29.0,24.0,29.85,WSW,250,6.0,14.0,81,0.00,,,0.00,,2013-02-23 16:22:00,
2013-02-23 11:32:00,29.0,23.0,29.85,WSW,256,5.0,13.0,77,0.00,,,0.00,,2013-02-23 16:32:00,
2013-02-23 11:42:00,29.0,23.0,29.85,WSW,256,5.0,13.0,77,0.00,,,0.00,,2013-02-23 16:42:00,
2013-02-23 11:52:00,29.0,23.0,29.85,WSW,256,5.0,13.0,77,0.00,,,0.00,,2013-02-23 16:52:00,
2013-02-23 12:01:00,29.0,23.0,29.86,WSW,250,6.0,15.0,77,0.00,,,0.00,,2013-02-23 17:01:00,
2013-02-23 12:11:00,29.0,23.0,29.86,WSW,250,6.0,15.0,77,0.00,,,0.00,,2013-02-23 17:11:00,
2013-02-23 12:22:00,29.0,23.0,29.86,WSW,250,6.0,15.0,77,0.00,,,0.00,,2013-02-23 17:22:00,
2013-02-23 12:32:00,29.0,24.0,29.86,SW,233,5.0,13.0,80,0.00,,,0.00,,2013-02-23 17:32:00,
2013-02-23 12:42:00,29.0,24.0,29.86,SW,233,5.0,13.0,80,0.00,,,0.00,,2013-02-23 17:42:00,
2013-02-23 12:52:00,29.0,24.0,29.86,SW,233,5.0,13.0,80,0.00,,,0.00,,2013-02-23 17:52:00,
2013-02-23 13:02:00,28.0,23.0,29.87,SW,224,6.0,14.0,81,0.00,,,0.00,,2013-02-23 18:02:00,
2013-02-23 13:12:00,28.0,23.0,29.87,SW,224,6.0,14.0,81,0.00,,,0.00,,2013-02-23 18:12:00,
2013-02-23 13:22:00,28.0,23.0,29.87,SW,224,6.0,14.0,81,0.00,,,0.00,,2013-02-23 18:22:00,
2013-02-23 13:32:00,28.0,23.0,29.86,WSW,249,5.0,12.0,81,0.00,,,0.00,,2013-02-23 18:32:00,
2013-02-23 13:42:00,28.0,23.0,29.86,WSW,249,5.0,12.0,81,0.00,,,0.00,,2013-02-23 18:42:00,
2013-02-23 13:52:00,28.0,23.0,29.86,WSW,249,5.0,12.0,81,0.00,,,0.00,,2013-02-23 18:52:00,
2013-02-23 14:01:00,28.0,23.0,29.85,WSW,245,6.0,15.0,82,0.00,,,0.00,,2013-02-23 19:01:00,
2013-02-23 14:11:00,28.0,23.0,29.85,WSW,245,6.0,15.0,82,0.00,,,0.00,,2013-02-23 19:11:00,
2013-02-23 14:21:00,28.0,23.0,29.85,WSW,245,6.0,15.0,82,0.00,,,0.00,,2013-02-23 19:21:00,
2013-02-23 14:32:00,28.0,23.0,29.85,WSW,256,5.0,15.0,81,0.00,,,0.00,,2013-02-23 19:32:00,
2013-02-23 14:42:00,28.0,23.0,29.85,WSW,256,5.0,15.0,81,0.00,,,0.00,,2013-02-23 19:42:00,
2013-02-23 14:52:00,28.0,23.0,29.85,WSW,256,5.0,15.0,81,0.00,,,0.00,,2013-02-23 19:52:00,
2013-02-23 15:01:00,28.0,23.0,29.85,WSW,237,5.0,15.0,81,0.00,,,0.00,,2013-02-23 20:01:00,
2013-02-23 15:11:00,28.0,23.0,29.85,WSW,237,5.0,15.0,81,0.00,,,0.00,,2013-02-23 20:11:00,
2013-02-23 15:22:00,28.0,23.0,29.85,WSW,237,5.0,15.0,81,0.00,,,0.00,,2013-02-23 20:22:00,
2013-02-23 15:32:00,28.0,23.0,29.84,West,268,3.0,12.0,80,0.00,,,0.00,,2013-02-23 20:32:00,
2013-02-23 15:42:00,28.0,23.0,29.84,West,268,3.0,12.0,80,0.00,,,0.00,,2013-02-23 20:42:00,
2013-02-23 15:53:00,28.0,23.0,29.84,West,268,3.0,12.0,80,0.00,,,0.00,,2013-02-23 20:53:00,
2013-02-23 16:02:00,28.0,22.0,29.85,SSW,206,6.0,10.0,77,0.00,,,0.00,,2013-02-23 21:02:00,
2013-02-23 16:11:00,28.0,22.0,29.85,SSW,206,6.0,10.0,77,0.00,,,0.00,,2013-02-23 21:11:00,
2013-02-23 16:22:00,28.0,22.0,29.85,SSW,206,6.0,10.0,77,0.00,,,0.00,,2013-02-23 21:22:00,
2013-02-23 16:32:00,28.0,22.0,29.86,SW,232,3.0,12.0,77,0.00,,,0.00,,2013-02-23 21:32:00,
2013-02-23 16:42:00,28.0,22.0,29.86,SW,232,3.0,12.0,77,0.00,,,0.00,,2013-02-23 21:42:00,
2013-02-23 16:52:00,28.0,22.0,29.86,SW,232,3.0,12.0,77,0.00,,,0.00,,2013-02-23 21:52:00,
2013-02-23 17:02:00,28.0,22.0,29.86,SW,214,3.0,6.0,78,0.00,,,0.00,,2013-02-23 22:02:00,
2013-02-23 17:11:00,28.0,22.0,29.86,SW,214,3.0,6.0,78,0.00,,,0.00,,2013-02-23 22:11:00,
2013-02-23 17:22:00,28.0,22.0,29.86,SW,214,3.0,6.0,78,0.00,,,0.00,,2013-02-23 22:22:00,
2013-02-23 17:32:00,28.0,22.0,29.86,SW,221,3.0,6.0,79,0.00,,,0.00,,2013-02-23 22:32:00,
2013-02-23 17:42:00,28.0,22.0,29.86,SW,221,3.0,6.0,79,0.00,,,0.00,,2013-02-23 22:42:00,
2013-02-23 17:52:00,28.0,22.0,29.86,SW,221,3.0,6.0,79,0.00,,,0.00,,2013-02-23 22:52:00,
2013-02-23 18:01:00,28.0,22.0,29.86,SW,222,5.0,8.0,79,0.00,,,0.00,,2013-02-23 23:01:00,
2013-02-23 18:11:00,28.0,22.0,29.86,SW,222,5.0,8.0,79,0.00,,,0.00,,2013-02-23 23:11:00,
2013-02-23 18:22:00,28.0,22.0,29.86,SW,222,5.0,8.0,79,0.00,,,0.00,,2013-02-23 23:22:00,
2013-02-23 18:32:00,27.0,21.0,29.87,SW,227,3.0,7.0,78,0.00,,,0.00,,2013-02-23 23:32:00,
2013-02-23 18:42:00,27.0,21.0,29.87,SW,227,3.0,7.0,78,0.00,,,0.00,,2013-02-23 23:42:00,
2013-02-23 18:52:00,27.0,21.0,29.87,SW,227,3.0,7.0,78,0.00,,,0.00,,2013-02-23 23:52:00,
2013-02-23 19:02:00,27.0,20.0,29.88,SW,215,1.0,5.0,76,0.00,,,0.00,,2013-02-24 00:02:00,
2013-02-23 19:11:00,27.0,20.0,29.88,SW,215,1.0,5.0,76,0.00,,,0.00,,2013-02-24 00:11:00,
2013-02-23 19:22:00,27.0,20.0,29.88,SW,215,1.0,5.0,76,0.00,,,0.00,,2013-02-24 00:22:00,
2013-02-23 19:32:00,27.0,20.0,29.88,SSW,204,0.0,5.0,74,0.00,,,0.00,,2013-02-24 00:32:00,
2013-02-23 19:42:00,27.0,20.0,29.88,SSW,204,0.0,5.0,74,0.00,,,0.00,,2013-02-24 00:42:00,
2013-02-23 19:52:00,27.0,20.0,29.88,SSW,204,0.0,5.0,74,0.00,,,0.00,,2013-02-24 00:52:00,
2013-02-23 20:01:00,27.0,19.0,29.89,SSW,210,1.0,3.0,72,0.00,,,0.00,,2013-02-24 01:01:00,
2013-02-23 20:11:00,27.0,19.0,29.89,SSW,210,1.0,3.0,72,0.00,,,0.00,,2013-02-24 01:11:00,
2013-02-23 20:22:00,27.0,19.0,29.89,SSW,210,1.0,3.0,72,0.00,,,0.00,,2013-02-24 01:22:00,
2013-02-23 20:32:00,26.0,18.0,29.89,SSW,208,0.0,2.0,71,0.00,,,0.00,,2013-02-24 01:32:00,
2013-02-23 20:42:00,26.0,18.0,29.89,SSW,208,0.0,2.0,71,0.00,,,0.00,,2013-02-24 01:42:00,
2013-02-23 20:52:00,26.0,18.0,29.89,SSW,208,0.0,2.0,71,0.00,,,0.00,,2013-02-24 01:52:00,
2013-02-23 21:01:00,26.0,18.0,29.89,SSW,204,1.0,3.0,71,0.00,,,0.00,,2013-02-24 02:01:00,
2013-02-23 21:11:00,26.0,18.0,29.89,SSW,204,1.0,3.0,71,0.00,,,0.00,,2013-02-24 02:11:00,
2013-02-23 21:22:00,26.0,18.0,29.89,SSW,204,1.0,3.0,71,0.00,,,0.00,,2013-02-24 02:22:00,
2013-02-23 21:32:00,26.0,18.0,29.89,South,184,1.0,3.0,71,0.00,,,0.00,,2013-02-24 02:32:00,
2013-02-23 21:42:00,26.0,18.0,29.89,South,184,1.0,3.0,71,0.00,,,0.00,,2013-02-24 02:42:00,
2013-02-23 21:52:00,26.0,18.0,29.89,South,184,1.0,3.0,71,0.00,,,0.00,,2013-02-24 02:52:00,
2013-02-23 22:02:00,26.0,19.0,29.89,SSW,205,1.0,3.0,73,0.00,,,0.00,,2013-02-24 03:02:00,
2013-02-23 22:11:00,26.0,19.0,29.89,SSW,205,1.0,3.0,73,0.00,,,0.00,,2013-02-24 03:11:00,
2013-02-23 22:22:00,26.0,19.0,29.89,SSW,205,1.0,3.0,73,0.00,,,0.00,,2013-02-24 03:22:00,
2013-02-23 22:32:00,26.0,19.0,29.89,SSW,205,0.0,0.0,74,0.00,,,0.00,,2013-02-24 03:32:00,
2013-02-23 22:42:00,26.0,19.0,29.89,SSW,205,0.0,0.0,74,0.00,,,0.00,,2013-02-24 03:42:00,
2013-02-23 22:52:00,26.0,19.0,29.89,SSW,205,0.0,0.0,74,0.00,,,0.00,,2013-02-24 03:52:00,
2013-02-23 23:02:00,26.0,19.0,29.88,SSW,205,0.0,2.0,75,0.00,,,0.00,,2013-02-24 04:02:00,
2013-02-23 23:11:00,26.0,19.0,29.88,SSW,205,0.0,2.0,75,0.00,,,0.00,,2013-02-24 04:11:00,
2013-02-23 23:22:00,26.0,19.0,29.88,SSW,205,0.0,2.0,75,0.00,,,0.00,,2013-02-24 04:22:00,
2013-02-23 23:32:00,26.0,19.0,29.88,SSW,205,1.0,2.0,76,0.00,,,0.00,,2013-02-24 04:32:00,
2013-02-23 23:42:00,26.0,19.0,29.88,SSW,205,1.0,2.0,76,0.00,,,0.00,,2013-02-24 04:42:00,
2013-02-23 23:52:00,26.0,19.0,29.88,SSW,205,1.0,2.0,76,0.00,,,0.00,,2013-02-24 04:52:00,